Time,TemperatureF,DewpointF,PressureIn,WindDirection,WindDirectionDegrees,WindSpeedMPH,WindSpeedGustMPH,Humidity,HourlyPrecipIn,Conditions,Clouds,dailyrainin,SoftwareType,DateUTC
2013-01-01 00:02:00,-8.0,-11.0,-100.00,NW,315,4.0,4.0,90,0.00,,,0.00,,2013-01-01 06:02:00,
2013-01-01 00:12:00,-9.0,-11.0,-100.00,WNW,295,2.0,4.0,90,0.00,,,0.00,,2013-01-01 06:12:00,
2013-01-01 00:22:00,-11.0,-13.0,-100.00,West,265,2.0,4.0,90,0.00,,,0.00,,2013-01-01 06:22:00,
2013-01-01 00:32:00,-9.0,-11.0,-100.00,WNW,300,4.0,4.0,90,0.00,,,0.00,,2013-01-01 06:32:00,
2013-01-01 00:42:00,-11.0,-13.0,-100.00,West,260,2.0,2.0,90,0.00,,,0.00,,2013-01-01 06:42:00,
2013-01-01 00:52:00,-9.0,-11.0,-100.00,West,270,2.0,4.0,90,0.00,,,0.00,,2013-01-01 06:52:00,
2013-01-01 01:02:00,-11.0,-13.0,-100.00,WSW,255,3.0,4.0,90,0.00,,,0.00,,2013-01-01 07:02:00,
2013-01-01 01:12:00,-11.0,-13.0,-100.00,WSW,250,3.0,4.0,90,0.00,,,0.00,,2013-01-01 07:12:00,
2013-01-01 01:22:00,-11.0,-13.0,-100.00,West,270,3.0,4.0,90,0.00,,,0.00,,2013-01-01 07:22:00,
2013-01-01 01:32:00,-11.0,-13.0,-100.00,West,265,3.0,4.0,90,0.00,,,0.00,,2013-01-01 07:32:00,
2013-01-01 01:42:00,-10.0,-11.0,-100.00,West,280,4.0,5.0,90,0.00,,,0.00,,2013-01-01 07:42:00,
2013-01-01 01:52:00,-10.0,-13.0,-100.00,West,265,3.0,4.0,90,0.00,,,0.00,,2013-01-01 07:52:00,
2013-01-01 02:02:00,-11.0,-13.0,-100.00,WSW,245,1.0,4.0,90,0.00,,,0.00,,2013-01-01 08:02:00,
2013-01-01 02:11:00,-12.0,-15.0,-100.00,WSW,255,4.0,4.0,90,0.00,,,0.00,,2013-01-01 08:11:00,
2013-01-01 02:22:00,-13.0,-15.0,-100.00,WSW,245,2.0,4.0,89,0.00,,,0.00,,2013-01-01 08:22:00,
2013-01-01 02:32:00,-14.0,-17.0,-100.00,WSW,240,1.0,2.0,89,0.00,,,0.00,,2013-01-01 08:32:00,
2013-01-01 02:42:00,-14.0,-17.0,-100.00,WSW,245,2.0,2.0,89,0.00,,,0.00,,2013-01-01 08:42:00,
2013-01-01 02:53:00,-14.0,-17.0,-100.00,WSW,240,1.0,2.0,89,0.00,,,0.00,,2013-01-01 08:53:00,
2013-01-01 03:02:00,-15.0,-17.0,-100.00,SSW,210,2.0,4.0,89,0.00,,,0.00,,2013-01-01 09:02:00,
2013-01-01 03:12:00,-15.0,-18.0,-100.00,SSW,205,1.0,3.0,89,0.00,,,0.00,,2013-01-01 09:12:00,
2013-01-01 03:22:00,-14.0,-17.0,-100.00,SSW,205,0.0,0.0,89,0.00,,,0.00,,2013-01-01 09:22:00,
2013-01-01 03:32:00,-14.0,-17.0,-100.00,SSW,205,0.0,0.0,89,0.00,,,0.00,,2013-01-01 09:32:00,
2013-01-01 03:42:00,-14.0,-17.0,-100.00,SSW,205,0.0,0.0,89,0.00,,,0.00,,2013-01-01 09:42:00,
2013-01-01 03:52:00,-14.0,-17.0,-100.00,SSW,205,0.0,0.0,89,0.00,,,0.00,,2013-01-01 09:52:00,
2013-01-01 04:02:00,-14.0,-17.0,-100.00,SSW,205,0.0,0.0,89,0.00,,,0.00,,2013-01-01 10:02:00,
2013-01-01 04:12:00,-14.0,-17.0,-100.00,SSW,205,1.0,1.0,89,0.00,,,0.00,,2013-01-01 10:12:00,
2013-01-01 04:22:00,-15.0,-18.0,-100.00,SW,230,1.0,2.0,89,0.00,,,0.00,,2013-01-01 10:22:00,
2013-01-01 04:33:00,-15.0,-18.0,-100.00,SW,225,1.0,3.0,89,0.00,,,0.00,,2013-01-01 10:33:00,
2013-01-01 04:42:00,-16.0,-18.0,-100.00,SW,215,1.0,2.0,89,0.00,,,0.00,,2013-01-01 10:42:00,
2013-01-01 04:52:00,-17.0,-18.0,-100.00,SSW,205,4.0,6.0,88,0.00,,,0.00,,2013-01-01 10:52:00,
2013-01-01 05:02:00,-17.0,-18.0,-100.00,SSW,210,4.0,6.0,88,0.00,,,0.00,,2013-01-01 11:02:00,
2013-01-01 05:12:00,-16.0,-18.0,-100.00,SSW,200,2.0,4.0,88,0.00,,,0.00,,2013-01-01 11:12:00,
2013-01-01 05:22:00,-16.0,-18.0,-100.00,SSW,195,3.0,3.0,88,0.00,,,0.00,,2013-01-01 11:22:00,
2013-01-01 05:32:00,-17.0,-18.0,-100.00,SSW,210,3.0,4.0,88,0.00,,,0.00,,2013-01-01 11:32:00,
2013-01-01 05:42:00,-16.0,-18.0,-100.00,WSW,245,1.0,4.0,88,0.00,,,0.00,,2013-01-01 11:42:00,
2013-01-01 05:52:00,-16.0,-18.0,-100.00,SW,220,1.0,2.0,88,0.00,,,0.00,,2013-01-01 11:52:00,
2013-01-01 06:02:00,-16.0,-18.0,-100.00,SSW,205,1.0,2.0,88,0.00,,,0.00,,2013-01-01 12:02:00,
2013-01-01 06:12:00,-16.0,-18.0,-100.00,SSW,205,0.0,1.0,88,0.00,,,0.00,,2013-01-01 12:12:00,
2013-01-01 06:22:00,-16.0,-18.0,-100.00,WSW,240,0.0,1.0,88,0.00,,,0.00,,2013-01-01 12:22:00,
2013-01-01 06:32:00,-16.0,-18.0,-100.00,South,185,2.0,2.0,88,0.00,,,0.00,,2013-01-01 12:32:00,
2013-01-01 06:42:00,-15.0,-18.0,-100.00,South,185,1.0,3.0,88,0.00,,,0.00,,2013-01-01 12:42:00,
2013-01-01 06:52:00,-14.0,-17.0,-100.00,SE,125,1.0,2.0,88,0.00,,,0.00,,2013-01-01 12:52:00,
2013-01-01 07:02:00,-12.0,-15.0,-100.00,SE,125,1.0,2.0,88,0.00,,,0.00,,2013-01-01 13:02:00,
2013-01-01 07:12:00,-11.0,-13.0,-100.00,SW,225,1.0,2.0,89,0.00,,,0.00,,2013-01-01 13:12:00,
2013-01-01 07:22:00,-10.0,-11.0,-100.00,South,190,1.0,3.0,89,0.00,,,0.00,,2013-01-01 13:22:00,
2013-01-01 07:32:00,-9.0,-11.0,-100.00,SSW,205,2.0,2.0,89,0.00,,,0.00,,2013-01-01 13:32:00,
2013-01-01 07:42:00,-9.0,-11.0,-100.00,SSW,195,2.0,2.0,89,0.00,,,0.00,,2013-01-01 13:42:00,
2013-01-01 07:52:00,-8.0,-9.0,-100.00,SSW,195,2.0,2.0,89,0.00,,,0.00,,2013-01-01 13:52:00,
2013-01-01 08:02:00,-8.0,-9.0,-100.00,South,170,0.0,2.0,89,0.00,,,0.00,,2013-01-01 14:02:00,
2013-01-01 08:12:00,-8.0,-9.0,-100.00,South,170,0.0,0.0,89,0.00,,,0.00,,2013-01-01 14:12:00,
2013-01-01 08:22:00,-7.0,-9.0,-100.00,SE,140,1.0,1.0,90,0.00,,,0.00,,2013-01-01 14:22:00,
2013-01-01 08:32:00,-7.0,-9.0,-100.00,SE,140,0.0,1.0,90,0.00,,,0.00,,2013-01-01 14:32:00,
2013-01-01 08:42:00,-6.0,-8.0,-100.00,SSW,205,2.0,2.0,90,0.00,,,0.00,,2013-01-01 14:42:00,
2013-01-01 08:53:00,-5.0,-8.0,-100.00,SSW,200,2.0,3.0,90,0.00,,,0.00,,2013-01-01 14:53:00,
2013-01-01 09:02:00,-5.0,-8.0,-100.00,South,190,2.0,2.0,90,0.00,,,0.00,,2013-01-01 15:02:00,
2013-01-01 09:12:00,-4.0,-6.0,-100.00,South,190,1.0,2.0,90,0.00,,,0.00,,2013-01-01 15:12:00,
2013-01-01 09:42:00,-1.0,-2.0,-100.00,SW,220,3.0,4.0,91,0.00,,,0.00,,2013-01-01 15:42:00,
2013-01-01 09:53:00,0.0,-2.0,-100.00,SSW,200,5.0,6.0,91,0.00,,,0.00,,2013-01-01 15:53:00,
2013-01-01 10:22:00,3.0,1.0,-100.00,SSW,200,6.0,7.0,91,0.00,,,0.00,,2013-01-01 16:22:00,
2013-01-01 10:32:00,4.0,1.0,-100.00,SSW,205,5.0,7.0,91,0.00,,,0.00,,2013-01-01 16:32:00,
2013-01-01 11:02:00,6.0,3.0,-100.00,SSW,195,7.0,9.0,86,0.00,,,0.00,,2013-01-01 17:02:00,
2013-01-01 12:03:00,9.0,3.0,-100.00,SSW,210,7.0,9.0,78,0.00,,,0.00,,2013-01-01 18:03:00,
2013-01-01 12:12:00,9.0,3.0,-100.00,SSW,200,7.0,9.0,79,0.00,,,0.00,,2013-01-01 18:12:00,
2013-01-01 12:22:00,9.0,5.0,-100.00,SW,215,7.0,9.0,80,0.00,,,0.00,,2013-01-01 18:22:00,
2013-01-01 12:33:00,9.0,5.0,-100.00,SSW,205,7.0,9.0,81,0.00,,,0.00,,2013-01-01 18:33:00,
2013-01-01 12:42:00,9.0,5.0,-100.00,SSW,210,9.0,11.0,83,0.00,,,0.00,,2013-01-01 18:42:00,
2013-01-01 12:52:00,9.0,5.0,-100.00,SW,215,9.0,11.0,83,0.00,,,0.00,,2013-01-01 18:52:00,
2013-01-01 13:02:00,9.0,5.0,-100.00,SSW,200,7.0,9.0,83,0.00,,,0.00,,2013-01-01 19:02:00,
2013-01-01 13:12:00,10.0,5.0,-100.00,SSW,210,9.0,11.0,83,0.00,,,0.00,,2013-01-01 19:12:00,
2013-01-01 13:22:00,9.0,5.0,-100.00,SSW,210,9.0,12.0,83,0.00,,,0.00,,2013-01-01 19:22:00,
2013-01-01 13:32:00,9.0,5.0,-100.00,SSW,205,10.0,12.0,83,0.00,,,0.00,,2013-01-01 19:32:00,
2013-01-01 13:42:00,10.0,5.0,-100.00,SSW,205,12.0,12.0,84,0.00,,,0.00,,2013-01-01 19:42:00,
2013-01-01 13:52:00,10.0,7.0,-100.00,SSW,210,10.0,13.0,84,0.00,,,0.00,,2013-01-01 19:52:00,
2013-01-01 14:02:00,10.0,7.0,-100.00,SSW,205,10.0,12.0,85,0.00,,,0.00,,2013-01-01 20:02:00,
2013-01-01 14:12:00,11.0,7.0,-100.00,SSW,195,9.0,13.0,85,0.00,,,0.00,,2013-01-01 20:12:00,
2013-01-01 14:22:00,11.0,7.0,-100.00,SSW,205,9.0,12.0,85,0.00,,,0.00,,2013-01-01 20:22:00,
2013-01-01 14:32:00,11.0,9.0,-100.00,SSW,195,12.0,14.0,85,0.00,,,0.00,,2013-01-01 20:32:00,
2013-01-01 14:42:00,12.0,9.0,-100.00,South,185,9.0,12.0,85,0.00,,,0.00,,2013-01-01 20:42:00,
2013-01-01 14:52:00,12.0,9.0,-100.00,SSW,205,9.0,12.0,85,0.00,,,0.00,,2013-01-01 20:52:00,
2013-01-01 15:03:00,12.0,9.0,-100.00,SSW,205,9.0,12.0,86,0.00,,,0.00,,2013-01-01 21:03:00,
2013-01-01 15:12:00,13.0,9.0,-100.00,South,190,7.0,11.0,86,0.00,,,0.00,,2013-01-01 21:12:00,
2013-01-01 15:22:00,13.0,10.0,-100.00,SSW,205,7.0,11.0,87,0.00,,,0.00,,2013-01-01 21:22:00,
2013-01-01 15:33:00,14.0,10.0,-100.00,South,190,7.0,11.0,87,0.00,,,0.00,,2013-01-01 21:33:00,
2013-01-01 15:42:00,14.0,10.0,-100.00,SSW,195,6.0,9.0,87,0.00,,,0.00,,2013-01-01 21:42:00,
2013-01-01 15:52:00,15.0,12.0,-100.00,SSW,195,7.0,9.0,87,0.00,,,0.00,,2013-01-01 21:52:00,
2013-01-01 16:02:00,15.0,12.0,-100.00,SSW,195,6.0,9.0,87,0.00,,,0.00,,2013-01-01 22:02:00,
2013-01-01 16:12:00,15.0,12.0,-100.00,SSW,200,7.0,9.0,87,0.00,,,0.00,,2013-01-01 22:12:00,
2013-01-01 16:22:00,16.0,12.0,-100.00,SSW,205,9.0,10.0,88,0.00,,,0.00,,2013-01-01 22:22:00,
2013-01-01 16:33:00,16.0,12.0,-100.00,SSW,210,7.0,10.0,89,0.00,,,0.00,,2013-01-01 22:33:00,
2013-01-01 16:42:00,16.0,12.0,-100.00,SSW,200,9.0,11.0,89,0.00,,,0.00,,2013-01-01 22:42:00,
2013-01-01 16:52:00,16.0,14.0,-100.00,SSW,200,7.0,10.0,89,0.00,,,0.00,,2013-01-01 22:52:00,
2013-01-01 17:02:00,16.0,14.0,-100.00,SSW,195,6.0,10.0,90,0.00,,,0.00,,2013-01-01 23:02:00,
2013-01-01 17:12:00,16.0,14.0,-100.00,South,185,7.0,10.0,90,0.00,,,0.00,,2013-01-01 23:12:00,
2013-01-01 17:22:00,16.0,14.0,-100.00,South,185,7.0,9.0,90,0.00,,,0.00,,2013-01-01 23:22:00,
2013-01-01 17:32:00,16.0,14.0,-100.00,South,185,7.0,10.0,91,0.00,,,0.00,,2013-01-01 23:32:00,
2013-01-01 17:42:00,16.0,14.0,-100.00,South,190,7.0,10.0,91,0.00,,,0.00,,2013-01-01 23:42:00,
2013-01-01 17:52:00,16.0,14.0,-100.00,South,185,7.0,11.0,91,0.00,,,0.00,,2013-01-01 23:52:00,
2013-01-01 18:02:00,16.0,14.0,-100.00,South,185,7.0,10.0,92,0.00,,,0.00,,2013-01-02 00:02:00,
2013-01-01 18:12:00,16.0,14.0,-100.00,South,185,7.0,10.0,92,0.00,,,0.00,,2013-01-02 00:12:00,
2013-01-01 18:22:00,16.0,14.0,-100.00,South,180,7.0,9.0,92,0.00,,,0.00,,2013-01-02 00:22:00,
2013-01-01 18:32:00,17.0,14.0,-100.00,South,185,6.0,9.0,92,0.00,,,0.00,,2013-01-02 00:32:00,
2013-01-01 18:42:00,17.0,14.0,-100.00,South,185,6.0,8.0,92,0.00,,,0.00,,2013-01-02 00:42:00,
2013-01-01 18:52:00,17.0,16.0,-100.00,South,185,7.0,9.0,93,0.00,,,0.00,,2013-01-02 00:52:00,
2013-01-01 19:02:00,17.0,16.0,-100.00,South,180,7.0,10.0,93,0.00,,,0.00,,2013-01-02 01:02:00,
2013-01-01 19:12:00,17.0,16.0,-100.00,South,185,7.0,10.0,93,0.00,,,0.00,,2013-01-02 01:12:00,
2013-01-01 19:22:00,17.0,16.0,-100.00,South,180,6.0,8.0,94,0.00,,,0.00,,2013-01-02 01:22:00,
2013-01-01 19:32:00,18.0,16.0,-100.00,South,180,6.0,7.0,94,0.00,,,0.00,,2013-01-02 01:32:00,
2013-01-01 19:42:00,18.0,16.0,-100.00,South,185,6.0,7.0,94,0.00,,,0.00,,2013-01-02 01:42:00,
2013-01-01 19:52:00,18.0,18.0,-100.00,South,185,6.0,8.0,94,0.00,,,0.00,,2013-01-02 01:52:00,
2013-01-01 20:02:00,18.0,18.0,-100.00,SSW,205,6.0,7.0,95,0.00,,,0.00,,2013-01-02 02:02:00,
2013-01-01 20:12:00,19.0,18.0,-100.00,SW,220,7.0,10.0,95,0.00,,,0.00,,2013-01-02 02:12:00,
2013-01-01 20:22:00,20.0,19.0,-100.00,SW,235,8.0,14.0,95,0.00,,,0.00,,2013-01-02 02:22:00,
2013-01-01 20:32:00,20.0,19.0,-100.00,SW,235,11.0,16.0,95,0.00,,,0.00,,2013-01-02 02:32:00,
2013-01-01 20:42:00,20.0,19.0,-100.00,SW,235,11.0,14.0,95,0.00,,,0.00,,2013-01-02 02:42:00,
2013-01-01 20:52:00,20.0,19.0,-100.00,SW,220,7.0,13.0,95,0.00,,,0.00,,2013-01-02 02:52:00,
2013-01-01 21:02:00,20.0,19.0,-100.00,SW,235,11.0,14.0,95,0.00,,,0.00,,2013-01-02 03:02:00,
2013-01-01 21:12:00,20.0,19.0,-100.00,WSW,240,7.0,14.0,95,0.00,,,0.00,,2013-01-02 03:12:00,
2013-01-01 21:22:00,20.0,19.0,-100.00,WSW,255,7.0,11.0,95,0.00,,,0.00,,2013-01-02 03:22:00,
2013-01-01 21:32:00,20.0,19.0,-100.00,SW,225,7.0,11.0,95,0.00,,,0.00,,2013-01-02 03:32:00,
2013-01-01 21:42:00,20.0,19.0,-100.00,SSW,210,8.0,12.0,95,0.00,,,0.00,,2013-01-02 03:42:00,
2013-01-01 21:52:00,20.0,19.0,-100.00,SW,220,10.0,12.0,95,0.00,,,0.00,,2013-01-02 03:52:00,
2013-01-01 22:02:00,20.0,19.0,-100.00,SSW,210,8.0,13.0,95,0.00,,,0.00,,2013-01-02 04:02:00,
2013-01-01 22:12:00,20.0,19.0,-100.00,SSW,205,9.0,12.0,95,0.00,,,0.00,,2013-01-02 04:12:00,
2013-01-01 22:22:00,20.0,19.0,-100.00,SSW,205,9.0,15.0,95,0.00,,,0.00,,2013-01-02 04:22:00,
2013-01-01 22:32:00,20.0,19.0,-100.00,SW,220,7.0,12.0,95,0.00,,,0.00,,2013-01-02 04:32:00,
2013-01-01 22:42:00,20.0,19.0,-100.00,SW,220,9.0,13.0,95,0.00,,,0.00,,2013-01-02 04:42:00,
2013-01-01 22:52:00,20.0,19.0,-100.00,SW,215,11.0,14.0,96,0.00,,,0.00,,2013-01-02 04:52:00,
2013-01-01 23:03:00,20.0,19.0,-100.00,SW,225,9.0,14.0,96,0.00,,,0.00,,2013-01-02 05:03:00,
2013-01-01 23:12:00,20.0,19.0,-100.00,SSW,205,9.0,14.0,96,0.00,,,0.00,,2013-01-02 05:12:00,
2013-01-01 23:22:00,20.0,19.0,-100.00,SSW,210,9.0,12.0,96,0.00,,,0.00,,2013-01-02 05:22:00,
2013-01-01 23:33:00,20.0,19.0,-100.00,SSW,210,9.0,12.0,96,0.00,,,0.00,,2013-01-02 05:33:00,
2013-01-01 23:42:00,20.0,19.0,-100.00,SSW,205,9.0,15.0,96,0.00,,,0.00,,2013-01-02 05:42:00,
2013-01-01 23:52:00,20.0,19.0,-100.00,SW,220,12.0,16.0,96,0.00,,,0.00,,2013-01-02 05:52:00,